sensor_id;sensor_type;location;lat;lon;timestamp;temperature;humidity
16392;DHT22;8305;-33.882;151.134;2022-08-01T00:00:23;16.00;99.90
16392;DHT22;8305;-33.882;151.134;2022-08-01T00:02:56;16.10;99.90
16392;DHT22;8305;-33.882;151.134;2022-08-01T00:05:27;16.30;99.90
16392;DHT22;8305;-33.882;151.134;2022-08-01T00:07:58;16.50;99.90
16392;DHT22;8305;-33.882;151.134;2022-08-01T00:10:28;16.60;99.90
16392;DHT22;8305;-33.882;151.134;2022-08-01T00:12:59;16.70;99.90
16392;DHT22;8305;-33.882;151.134;2022-08-01T00:15:33;16.80;99.90
16392;DHT22;8305;-33.882;151.134;2022-08-01T00:18:06;16.90;99.90
16392;DHT22;8305;-33.882;151.134;2022-08-01T00:20:36;17.10;99.90
16392;DHT22;8305;-33.882;151.134;2022-08-01T00:23:07;17.20;99.90
16392;DHT22;8305;-33.882;151.134;2022-08-01T00:25:37;17.30;99.90
16392;DHT22;8305;-33.882;151.134;2022-08-01T00:28:08;17.30;99.90
16392;DHT22;8305;-33.882;151.134;2022-08-01T00:30:41;17.40;99.90
16392;DHT22;8305;-33.882;151.134;2022-08-01T00:33:14;17.60;99.90
16392;DHT22;8305;-33.882;151.134;2022-08-01T00:35:44;17.70;99.90
16392;DHT22;8305;-33.882;151.134;2022-08-01T00:38:15;17.90;99.90
16392;DHT22;8305;-33.882;151.134;2022-08-01T00:40:46;17.90;99.90
16392;DHT22;8305;-33.882;151.134;2022-08-01T00:43:16;18.00;99.90
16392;DHT22;8305;-33.882;151.134;2022-08-01T00:45:47;18.10;99.90
16392;DHT22;8305;-33.882;151.134;2022-08-01T00:48:20;18.30;99.90
16392;DHT22;8305;-33.882;151.134;2022-08-01T00:50:50;18.30;99.90
16392;DHT22;8305;-33.882;151.134;2022-08-01T00:53:21;18.40;99.90
16392;DHT22;8305;-33.882;151.134;2022-08-01T00:55:52;18.50;99.90
16392;DHT22;8305;-33.882;151.134;2022-08-01T00:58:23;18.50;99.90
16392;DHT22;8305;-33.882;151.134;2022-08-01T01:00:56;18.50;99.90
16392;DHT22;8305;-33.882;151.134;2022-08-01T01:03:29;18.60;99.90
16392;DHT22;8305;-33.882;151.134;2022-08-01T01:06:10;18.60;99.90
16392;DHT22;8305;-33.882;151.134;2022-08-01T01:08:44;18.70;99.90
16392;DHT22;8305;-33.882;151.134;2022-08-01T01:11:24;18.80;99.90
16392;DHT22;8305;-33.882;151.134;2022-08-01T01:14:00;18.80;99.90
16392;DHT22;8305;-33.882;151.134;2022-08-01T01:16:32;18.80;99.90
16392;DHT22;8305;-33.882;151.134;2022-08-01T01:19:08;18.90;99.90
16392;DHT22;8305;-33.882;151.134;2022-08-01T01:24:55;18.90;99.90
16392;DHT22;8305;-33.882;151.134;2022-08-01T01:27:42;18.90;99.90
16392;DHT22;8305;-33.882;151.134;2022-08-01T01:30:17;19.00;99.90
16392;DHT22;8305;-33.882;151.134;2022-08-01T01:32:51;19.00;99.90
16392;DHT22;8305;-33.882;151.134;2022-08-01T01:35:26;19.00;99.90
16392;DHT22;8305;-33.882;151.134;2022-08-01T01:38:04;19.00;99.90
16392;DHT22;8305;-33.882;151.134;2022-08-01T01:40:35;19.00;99.90
16392;DHT22;8305;-33.882;151.134;2022-08-01T01:43:10;19.10;99.90
16392;DHT22;8305;-33.882;151.134;2022-08-01T01:45:45;19.20;99.90
16392;DHT22;8305;-33.882;151.134;2022-08-01T01:48:19;19.20;99.90
16392;DHT22;8305;-33.882;151.134;2022-08-01T01:50:52;19.30;99.90
16392;DHT22;8305;-33.882;151.134;2022-08-01T01:53:24;19.30;99.90
16392;DHT22;8305;-33.882;151.134;2022-08-01T01:55:58;19.40;99.90
16392;DHT22;8305;-33.882;151.134;2022-08-01T01:58:30;19.40;99.90
16392;DHT22;8305;-33.882;151.134;2022-08-01T02:01:04;19.50;99.90
16392;DHT22;8305;-33.882;151.134;2022-08-01T02:03:37;19.60;99.90
16392;DHT22;8305;-33.882;151.134;2022-08-01T02:06:09;19.60;99.90
16392;DHT22;8305;-33.882;151.134;2022-08-01T02:08:43;19.70;99.90
16392;DHT22;8305;-33.882;151.134;2022-08-01T02:11:15;19.70;99.90
16392;DHT22;8305;-33.882;151.134;2022-08-01T02:13:52;19.60;99.90
16392;DHT22;8305;-33.882;151.134;2022-08-01T02:16:31;19.50;99.90
16392;DHT22;8305;-33.882;151.134;2022-08-01T02:19:02;19.50;99.90
16392;DHT22;8305;-33.882;151.134;2022-08-01T02:21:39;19.40;99.90
16392;DHT22;8305;-33.882;151.134;2022-08-01T02:24:14;19.20;99.90
16392;DHT22;8305;-33.882;151.134;2022-08-01T02:26:50;19.10;99.90
16392;DHT22;8305;-33.882;151.134;2022-08-01T02:29:27;18.90;99.90
16392;DHT22;8305;-33.882;151.134;2022-08-01T02:32:01;18.90;99.90
16392;DHT22;8305;-33.882;151.134;2022-08-01T02:34:34;19.00;99.90
16392;DHT22;8305;-33.882;151.134;2022-08-01T02:37:05;19.20;99.90
16392;DHT22;8305;-33.882;151.134;2022-08-01T02:39:40;19.40;99.90
16392;DHT22;8305;-33.882;151.134;2022-08-01T02:42:12;19.50;99.90
16392;DHT22;8305;-33.882;151.134;2022-08-01T02:44:44;19.60;99.90
16392;DHT22;8305;-33.882;151.134;2022-08-01T02:47:20;19.80;99.90
16392;DHT22;8305;-33.882;151.134;2022-08-01T02:49:53;19.80;99.90
16392;DHT22;8305;-33.882;151.134;2022-08-01T02:52:25;19.80;99.90
16392;DHT22;8305;-33.882;151.134;2022-08-01T02:54:58;19.90;99.90
16392;DHT22;8305;-33.882;151.134;2022-08-01T02:57:30;20.00;99.90
16392;DHT22;8305;-33.882;151.134;2022-08-01T03:00:02;19.90;99.90
16392;DHT22;8305;-33.882;151.134;2022-08-01T03:02:36;20.00;99.90
16392;DHT22;8305;-33.882;151.134;2022-08-01T03:05:08;20.10;99.90
16392;DHT22;8305;-33.882;151.134;2022-08-01T03:07:41;20.20;99.90
16392;DHT22;8305;-33.882;151.134;2022-08-01T03:10:12;20.20;99.90
16392;DHT22;8305;-33.882;151.134;2022-08-01T03:12:44;20.00;99.90
16392;DHT22;8305;-33.882;151.134;2022-08-01T03:15:17;19.70;99.90
16392;DHT22;8305;-33.882;151.134;2022-08-01T03:17:51;19.60;99.90
16392;DHT22;8305;-33.882;151.134;2022-08-01T03:20:23;19.50;99.90
16392;DHT22;8305;-33.882;151.134;2022-08-01T03:22:56;19.20;99.90
16392;DHT22;8305;-33.882;151.134;2022-08-01T03:25:28;19.20;99.90
16392;DHT22;8305;-33.882;151.134;2022-08-01T03:28:01;19.30;99.90
16392;DHT22;8305;-33.882;151.134;2022-08-01T03:30:33;19.50;99.90
16392;DHT22;8305;-33.882;151.134;2022-08-01T03:33:07;19.70;99.90
16392;DHT22;8305;-33.882;151.134;2022-08-01T03:35:46;19.80;99.90
16392;DHT22;8305;-33.882;151.134;2022-08-01T03:38:21;19.90;99.90
16392;DHT22;8305;-33.882;151.134;2022-08-01T03:40:55;19.90;99.90
16392;DHT22;8305;-33.882;151.134;2022-08-01T03:43:37;19.70;99.90
16392;DHT22;8305;-33.882;151.134;2022-08-01T03:46:25;19.70;99.90
16392;DHT22;8305;-33.882;151.134;2022-08-01T03:49:03;19.80;99.90
16392;DHT22;8305;-33.882;151.134;2022-08-01T03:51:35;19.80;99.90
16392;DHT22;8305;-33.882;151.134;2022-08-01T03:54:08;19.80;99.90
16392;DHT22;8305;-33.882;151.134;2022-08-01T03:56:43;19.80;99.90
16392;DHT22;8305;-33.882;151.134;2022-08-01T03:59:16;19.70;99.90
16392;DHT22;8305;-33.882;151.134;2022-08-01T04:01:47;19.70;99.90
16392;DHT22;8305;-33.882;151.134;2022-08-01T04:04:20;19.90;99.90
16392;DHT22;8305;-33.882;151.134;2022-08-01T04:06:51;19.80;99.90
16392;DHT22;8305;-33.882;151.134;2022-08-01T04:09:23;19.70;99.90
16392;DHT22;8305;-33.882;151.134;2022-08-01T04:11:54;19.80;99.90
16392;DHT22;8305;-33.882;151.134;2022-08-01T04:14:24;19.80;99.90
16392;DHT22;8305;-33.882;151.134;2022-08-01T04:16:55;19.90;99.90
16392;DHT22;8305;-33.882;151.134;2022-08-01T04:19:27;19.90;99.90
16392;DHT22;8305;-33.882;151.134;2022-08-01T04:21:58;19.90;99.90
16392;DHT22;8305;-33.882;151.134;2022-08-01T04:24:31;19.90;99.90
16392;DHT22;8305;-33.882;151.134;2022-08-01T04:27:04;19.80;99.90
16392;DHT22;8305;-33.882;151.134;2022-08-01T04:29:37;19.90;99.90
16392;DHT22;8305;-33.882;151.134;2022-08-01T04:32:11;19.90;99.90
16392;DHT22;8305;-33.882;151.134;2022-08-01T04:34:45;19.90;99.90
16392;DHT22;8305;-33.882;151.134;2022-08-01T04:37:18;19.90;99.90
16392;DHT22;8305;-33.882;151.134;2022-08-01T04:39:53;19.90;99.90
16392;DHT22;8305;-33.882;151.134;2022-08-01T04:42:24;19.80;99.90
16392;DHT22;8305;-33.882;151.134;2022-08-01T04:44:55;19.80;99.90
16392;DHT22;8305;-33.882;151.134;2022-08-01T04:47:26;19.80;99.90
16392;DHT22;8305;-33.882;151.134;2022-08-01T04:49:59;19.90;99.90
16392;DHT22;8305;-33.882;151.134;2022-08-01T04:52:34;19.80;99.90
16392;DHT22;8305;-33.882;151.134;2022-08-01T04:55:06;19.80;99.90
16392;DHT22;8305;-33.882;151.134;2022-08-01T04:57:42;19.70;99.90
16392;DHT22;8305;-33.882;151.134;2022-08-01T05:00:14;19.70;99.90
16392;DHT22;8305;-33.882;151.134;2022-08-01T05:02:46;19.70;99.90
16392;DHT22;8305;-33.882;151.134;2022-08-01T05:05:19;19.70;99.90
16392;DHT22;8305;-33.882;151.134;2022-08-01T05:07:50;19.70;99.90
16392;DHT22;8305;-33.882;151.134;2022-08-01T05:10:21;19.60;99.90
16392;DHT22;8305;-33.882;151.134;2022-08-01T05:12:52;19.60;99.90
16392;DHT22;8305;-33.882;151.134;2022-08-01T05:15:22;19.60;99.90
16392;DHT22;8305;-33.882;151.134;2022-08-01T05:17:53;19.60;99.90
16392;DHT22;8305;-33.882;151.134;2022-08-01T05:20:26;19.50;99.90
16392;DHT22;8305;-33.882;151.134;2022-08-01T05:22:56;19.50;99.90
16392;DHT22;8305;-33.882;151.134;2022-08-01T05:25:27;19.50;99.90
16392;DHT22;8305;-33.882;151.134;2022-08-01T05:27:58;19.50;99.90
16392;DHT22;8305;-33.882;151.134;2022-08-01T05:30:28;19.50;99.90
16392;DHT22;8305;-33.882;151.134;2022-08-01T05:32:59;19.40;99.90
16392;DHT22;8305;-33.882;151.134;2022-08-01T05:35:32;19.40;99.90
16392;DHT22;8305;-33.882;151.134;2022-08-01T05:38:02;19.30;99.90
16392;DHT22;8305;-33.882;151.134;2022-08-01T05:40:33;19.30;99.90
16392;DHT22;8305;-33.882;151.134;2022-08-01T05:43:05;19.30;99.90
16392;DHT22;8305;-33.882;151.134;2022-08-01T05:45:36;19.30;99.90
16392;DHT22;8305;-33.882;151.134;2022-08-01T05:48:09;19.30;99.90
16392;DHT22;8305;-33.882;151.134;2022-08-01T05:50:41;19.30;99.90
16392;DHT22;8305;-33.882;151.134;2022-08-01T05:53:12;19.30;99.90
16392;DHT22;8305;-33.882;151.134;2022-08-01T05:55:42;19.40;99.90
16392;DHT22;8305;-33.882;151.134;2022-08-01T05:58:13;19.30;99.90
16392;DHT22;8305;-33.882;151.134;2022-08-01T06:00:44;19.30;99.90
16392;DHT22;8305;-33.882;151.134;2022-08-01T06:03:14;19.30;99.90
16392;DHT22;8305;-33.882;151.134;2022-08-01T06:05:47;19.30;99.90
16392;DHT22;8305;-33.882;151.134;2022-08-01T06:08:18;19.30;99.90
16392;DHT22;8305;-33.882;151.134;2022-08-01T06:10:48;19.20;99.90
16392;DHT22;8305;-33.882;151.134;2022-08-01T06:13:19;19.10;99.90
16392;DHT22;8305;-33.882;151.134;2022-08-01T06:15:50;19.10;99.90
16392;DHT22;8305;-33.882;151.134;2022-08-01T06:18:21;19.10;99.90
16392;DHT22;8305;-33.882;151.134;2022-08-01T06:20:54;19.00;99.90
16392;DHT22;8305;-33.882;151.134;2022-08-01T06:23:24;19.00;99.90
16392;DHT22;8305;-33.882;151.134;2022-08-01T06:25:55;19.00;99.90
16392;DHT22;8305;-33.882;151.134;2022-08-01T06:28:26;19.00;99.90
16392;DHT22;8305;-33.882;151.134;2022-08-01T06:30:56;18.90;99.90
16392;DHT22;8305;-33.882;151.134;2022-08-01T06:33:28;18.90;99.90
16392;DHT22;8305;-33.882;151.134;2022-08-01T06:36:01;18.80;99.90
16392;DHT22;8305;-33.882;151.134;2022-08-01T06:38:32;18.70;99.90
16392;DHT22;8305;-33.882;151.134;2022-08-01T06:41:03;18.60;99.90
16392;DHT22;8305;-33.882;151.134;2022-08-01T06:43:33;18.60;99.90
16392;DHT22;8305;-33.882;151.134;2022-08-01T06:46:04;18.50;99.90
16392;DHT22;8305;-33.882;151.134;2022-08-01T06:48:35;18.40;99.90
16392;DHT22;8305;-33.882;151.134;2022-08-01T06:51:08;18.40;99.90
16392;DHT22;8305;-33.882;151.134;2022-08-01T06:53:41;18.40;99.90
16392;DHT22;8305;-33.882;151.134;2022-08-01T06:56:12;18.30;99.90
16392;DHT22;8305;-33.882;151.134;2022-08-01T06:58:42;18.30;99.90
16392;DHT22;8305;-33.882;151.134;2022-08-01T07:01:13;18.20;99.90
16392;DHT22;8305;-33.882;151.134;2022-08-01T07:03:44;18.00;99.90
16392;DHT22;8305;-33.882;151.134;2022-08-01T07:06:16;17.90;99.90
16392;DHT22;8305;-33.882;151.134;2022-08-01T07:08:47;17.90;99.90
16392;DHT22;8305;-33.882;151.134;2022-08-01T07:11:18;17.80;99.90
16392;DHT22;8305;-33.882;151.134;2022-08-01T07:13:48;17.70;99.90
16392;DHT22;8305;-33.882;151.134;2022-08-01T07:16:19;17.60;99.90
16392;DHT22;8305;-33.882;151.134;2022-08-01T07:18:50;17.50;99.90
16392;DHT22;8305;-33.882;151.134;2022-08-01T07:21:22;17.40;99.90
16392;DHT22;8305;-33.882;151.134;2022-08-01T07:23:53;17.40;99.90
16392;DHT22;8305;-33.882;151.134;2022-08-01T07:26:23;17.30;99.90
16392;DHT22;8305;-33.882;151.134;2022-08-01T07:28:54;17.20;99.90
16392;DHT22;8305;-33.882;151.134;2022-08-01T07:31:25;17.20;99.90
16392;DHT22;8305;-33.882;151.134;2022-08-01T07:33:55;17.10;99.90
16392;DHT22;8305;-33.882;151.134;2022-08-01T07:36:28;17.10;99.90
16392;DHT22;8305;-33.882;151.134;2022-08-01T07:38:58;17.00;99.90
16392;DHT22;8305;-33.882;151.134;2022-08-01T07:41:29;17.00;99.90
16392;DHT22;8305;-33.882;151.134;2022-08-01T07:44:00;16.90;99.90
16392;DHT22;8305;-33.882;151.134;2022-08-01T07:46:30;16.90;99.90
16392;DHT22;8305;-33.882;151.134;2022-08-01T07:49:01;16.80;99.90
16392;DHT22;8305;-33.882;151.134;2022-08-01T07:51:34;16.70;99.90
16392;DHT22;8305;-33.882;151.134;2022-08-01T07:54:04;16.60;99.90
16392;DHT22;8305;-33.882;151.134;2022-08-01T07:56:35;16.60;99.90
16392;DHT22;8305;-33.882;151.134;2022-08-01T07:59:06;16.60;99.90
16392;DHT22;8305;-33.882;151.134;2022-08-01T08:01:36;16.60;99.90
16392;DHT22;8305;-33.882;151.134;2022-08-01T08:04:07;16.50;99.90
16392;DHT22;8305;-33.882;151.134;2022-08-01T08:06:39;16.50;99.90
16392;DHT22;8305;-33.882;151.134;2022-08-01T08:09:10;16.50;99.90
16392;DHT22;8305;-33.882;151.134;2022-08-01T08:11:42;16.40;99.90
16392;DHT22;8305;-33.882;151.134;2022-08-01T08:14:13;16.40;99.90
16392;DHT22;8305;-33.882;151.134;2022-08-01T08:16:44;16.40;99.90
16392;DHT22;8305;-33.882;151.134;2022-08-01T08:19:15;16.30;99.90
16392;DHT22;8305;-33.882;151.134;2022-08-01T08:21:48;16.20;99.90
16392;DHT22;8305;-33.882;151.134;2022-08-01T08:24:18;16.20;99.90
16392;DHT22;8305;-33.882;151.134;2022-08-01T08:26:50;16.20;99.90
16392;DHT22;8305;-33.882;151.134;2022-08-01T08:29:22;16.10;99.90
16392;DHT22;8305;-33.882;151.134;2022-08-01T08:31:54;16.10;99.90
16392;DHT22;8305;-33.882;151.134;2022-08-01T08:34:25;16.00;99.90
16392;DHT22;8305;-33.882;151.134;2022-08-01T08:36:58;16.00;99.90
16392;DHT22;8305;-33.882;151.134;2022-08-01T08:39:29;15.90;99.90
16392;DHT22;8305;-33.882;151.134;2022-08-01T08:42:01;15.90;99.90
16392;DHT22;8305;-33.882;151.134;2022-08-01T08:44:31;15.90;99.90
16392;DHT22;8305;-33.882;151.134;2022-08-01T08:47:03;15.90;99.90
16392;DHT22;8305;-33.882;151.134;2022-08-01T08:49:36;15.90;99.90
16392;DHT22;8305;-33.882;151.134;2022-08-01T08:52:10;15.80;99.90
16392;DHT22;8305;-33.882;151.134;2022-08-01T08:54:42;15.80;99.90
16392;DHT22;8305;-33.882;151.134;2022-08-01T08:57:14;15.70;99.90
16392;DHT22;8305;-33.882;151.134;2022-08-01T08:59:45;15.70;99.90
16392;DHT22;8305;-33.882;151.134;2022-08-01T09:02:16;15.60;99.90
16392;DHT22;8305;-33.882;151.134;2022-08-01T09:04:48;15.50;99.90
16392;DHT22;8305;-33.882;151.134;2022-08-01T09:07:21;15.40;99.90
16392;DHT22;8305;-33.882;151.134;2022-08-01T09:09:53;15.40;99.90
16392;DHT22;8305;-33.882;151.134;2022-08-01T09:12:24;15.30;99.90
16392;DHT22;8305;-33.882;151.134;2022-08-01T09:14:54;15.30;99.90
16392;DHT22;8305;-33.882;151.134;2022-08-01T09:17:25;15.20;99.90
16392;DHT22;8305;-33.882;151.134;2022-08-01T09:19:56;15.20;99.90
16392;DHT22;8305;-33.882;151.134;2022-08-01T09:22:33;15.10;99.90
16392;DHT22;8305;-33.882;151.134;2022-08-01T09:25:06;15.00;99.90
16392;DHT22;8305;-33.882;151.134;2022-08-01T09:27:38;15.00;99.90
16392;DHT22;8305;-33.882;151.134;2022-08-01T09:30:10;15.00;99.90
16392;DHT22;8305;-33.882;151.134;2022-08-01T09:32:55;14.90;99.90
16392;DHT22;8305;-33.882;151.134;2022-08-01T09:35:28;14.90;99.90
16392;DHT22;8305;-33.882;151.134;2022-08-01T09:38:18;14.90;99.90
16392;DHT22;8305;-33.882;151.134;2022-08-01T09:40:51;14.80;99.90
16392;DHT22;8305;-33.882;151.134;2022-08-01T09:43:23;14.80;99.90
16392;DHT22;8305;-33.882;151.134;2022-08-01T09:45:55;14.70;99.90
16392;DHT22;8305;-33.882;151.134;2022-08-01T09:48:26;14.80;99.90
16392;DHT22;8305;-33.882;151.134;2022-08-01T09:50:58;14.70;99.90
16392;DHT22;8305;-33.882;151.134;2022-08-01T09:53:41;14.70;99.90
16392;DHT22;8305;-33.882;151.134;2022-08-01T09:56:12;14.60;99.90
16392;DHT22;8305;-33.882;151.134;2022-08-01T09:58:54;14.50;99.90
16392;DHT22;8305;-33.882;151.134;2022-08-01T10:01:25;14.50;99.90
16392;DHT22;8305;-33.882;151.134;2022-08-01T10:04:09;14.40;99.90
16392;DHT22;8305;-33.882;151.134;2022-08-01T10:06:41;14.30;99.90
16392;DHT22;8305;-33.882;151.134;2022-08-01T10:09:15;14.30;99.90
16392;DHT22;8305;-33.882;151.134;2022-08-01T10:11:45;14.20;99.90
16392;DHT22;8305;-33.882;151.134;2022-08-01T10:14:16;14.20;99.90
16392;DHT22;8305;-33.882;151.134;2022-08-01T10:16:49;14.20;99.90
16392;DHT22;8305;-33.882;151.134;2022-08-01T10:19:21;14.10;99.90
16392;DHT22;8305;-33.882;151.134;2022-08-01T10:21:53;14.00;99.90
16392;DHT22;8305;-33.882;151.134;2022-08-01T10:24:27;14.10;99.90
16392;DHT22;8305;-33.882;151.134;2022-08-01T10:27:01;14.00;99.90
16392;DHT22;8305;-33.882;151.134;2022-08-01T10:29:36;13.90;99.90
16392;DHT22;8305;-33.882;151.134;2022-08-01T10:32:08;13.90;99.90
16392;DHT22;8305;-33.882;151.134;2022-08-01T10:34:39;13.90;99.90
16392;DHT22;8305;-33.882;151.134;2022-08-01T10:37:11;13.90;99.90
16392;DHT22;8305;-33.882;151.134;2022-08-01T10:39:46;13.80;99.90
16392;DHT22;8305;-33.882;151.134;2022-08-01T10:42:16;13.80;99.90
16392;DHT22;8305;-33.882;151.134;2022-08-01T10:44:48;13.80;99.90
16392;DHT22;8305;-33.882;151.134;2022-08-01T10:47:23;13.80;99.90
16392;DHT22;8305;-33.882;151.134;2022-08-01T10:50:11;13.80;99.90
16392;DHT22;8305;-33.882;151.134;2022-08-01T10:53:06;13.70;99.90
16392;DHT22;8305;-33.882;151.134;2022-08-01T10:55:49;13.70;99.90
16392;DHT22;8305;-33.882;151.134;2022-08-01T10:58:25;13.70;99.90
16392;DHT22;8305;-33.882;151.134;2022-08-01T11:01:22;13.70;99.90
16392;DHT22;8305;-33.882;151.134;2022-08-01T11:04:08;13.60;99.90
16392;DHT22;8305;-33.882;151.134;2022-08-01T11:06:52;13.60;99.90
16392;DHT22;8305;-33.882;151.134;2022-08-01T11:09:30;13.50;99.90
16392;DHT22;8305;-33.882;151.134;2022-08-01T11:12:08;13.50;99.90
16392;DHT22;8305;-33.882;151.134;2022-08-01T11:17:52;13.40;99.90
16392;DHT22;8305;-33.882;151.134;2022-08-01T11:20:24;13.40;99.90
16392;DHT22;8305;-33.882;151.134;2022-08-01T11:23:27;13.30;99.90
16392;DHT22;8305;-33.882;151.134;2022-08-01T11:26:15;13.30;99.90
16392;DHT22;8305;-33.882;151.134;2022-08-01T11:29:14;13.30;99.90
16392;DHT22;8305;-33.882;151.134;2022-08-01T11:31:45;13.20;99.90
16392;DHT22;8305;-33.882;151.134;2022-08-01T11:34:16;13.10;99.90
16392;DHT22;8305;-33.882;151.134;2022-08-01T11:36:46;13.10;99.90
16392;DHT22;8305;-33.882;151.134;2022-08-01T11:39:18;13.10;99.90
16392;DHT22;8305;-33.882;151.134;2022-08-01T11:41:49;13.10;99.90
16392;DHT22;8305;-33.882;151.134;2022-08-01T11:44:25;13.10;99.90
16392;DHT22;8305;-33.882;151.134;2022-08-01T11:47:01;13.10;99.90
16392;DHT22;8305;-33.882;151.134;2022-08-01T11:49:52;13.10;99.90
16392;DHT22;8305;-33.882;151.134;2022-08-01T11:52:29;13.00;99.90
16392;DHT22;8305;-33.882;151.134;2022-08-01T11:55:07;13.00;99.90
16392;DHT22;8305;-33.882;151.134;2022-08-01T11:57:38;12.90;99.90
16392;DHT22;8305;-33.882;151.134;2022-08-01T12:00:15;12.90;99.90
16392;DHT22;8305;-33.882;151.134;2022-08-01T12:02:48;12.80;99.90
16392;DHT22;8305;-33.882;151.134;2022-08-01T12:05:27;12.80;99.90
16392;DHT22;8305;-33.882;151.134;2022-08-01T12:07:58;12.80;99.90
16392;DHT22;8305;-33.882;151.134;2022-08-01T12:10:30;12.70;99.90
16392;DHT22;8305;-33.882;151.134;2022-08-01T12:13:04;12.70;99.90
16392;DHT22;8305;-33.882;151.134;2022-08-01T12:15:38;12.60;99.90
16392;DHT22;8305;-33.882;151.134;2022-08-01T12:18:08;12.60;99.90
16392;DHT22;8305;-33.882;151.134;2022-08-01T12:20:40;12.60;99.90
16392;DHT22;8305;-33.882;151.134;2022-08-01T12:23:13;12.50;99.90
16392;DHT22;8305;-33.882;151.134;2022-08-01T12:25:50;12.40;99.90
16392;DHT22;8305;-33.882;151.134;2022-08-01T12:28:21;12.20;99.90
16392;DHT22;8305;-33.882;151.134;2022-08-01T12:30:54;12.10;99.90
16392;DHT22;8305;-33.882;151.134;2022-08-01T12:33:24;12.00;99.90
16392;DHT22;8305;-33.882;151.134;2022-08-01T12:35:55;11.80;99.90
16392;DHT22;8305;-33.882;151.134;2022-08-01T12:38:26;11.70;99.90
16392;DHT22;8305;-33.882;151.134;2022-08-01T12:41:00;11.50;99.90
16392;DHT22;8305;-33.882;151.134;2022-08-01T12:43:32;11.50;99.90
16392;DHT22;8305;-33.882;151.134;2022-08-01T12:46:05;11.40;99.90
16392;DHT22;8305;-33.882;151.134;2022-08-01T12:48:39;11.40;99.90
16392;DHT22;8305;-33.882;151.134;2022-08-01T12:51:09;11.40;99.90
16392;DHT22;8305;-33.882;151.134;2022-08-01T12:53:40;11.40;99.90
16392;DHT22;8305;-33.882;151.134;2022-08-01T12:56:11;11.40;99.90
16392;DHT22;8305;-33.882;151.134;2022-08-01T12:58:42;11.40;99.90
16392;DHT22;8305;-33.882;151.134;2022-08-01T13:01:15;11.40;99.90
16392;DHT22;8305;-33.882;151.134;2022-08-01T13:03:59;11.30;99.90
16392;DHT22;8305;-33.882;151.134;2022-08-01T13:06:31;11.30;99.90
16392;DHT22;8305;-33.882;151.134;2022-08-01T13:09:10;11.30;99.90
16392;DHT22;8305;-33.882;151.134;2022-08-01T13:11:41;11.30;99.90
16392;DHT22;8305;-33.882;151.134;2022-08-01T13:14:27;11.20;99.90
16392;DHT22;8305;-33.882;151.134;2022-08-01T13:17:00;11.10;99.90
16392;DHT22;8305;-33.882;151.134;2022-08-01T13:19:43;10.90;99.90
16392;DHT22;8305;-33.882;151.134;2022-08-01T13:22:14;10.90;99.90
16392;DHT22;8305;-33.882;151.134;2022-08-01T13:24:45;10.80;99.90
16392;DHT22;8305;-33.882;151.134;2022-08-01T13:27:21;10.80;99.90
16392;DHT22;8305;-33.882;151.134;2022-08-01T13:30:11;10.70;99.90
16392;DHT22;8305;-33.882;151.134;2022-08-01T13:32:56;10.70;99.90
16392;DHT22;8305;-33.882;151.134;2022-08-01T13:35:27;10.70;99.90
16392;DHT22;8305;-33.882;151.134;2022-08-01T13:37:58;10.70;99.90
16392;DHT22;8305;-33.882;151.134;2022-08-01T13:40:31;10.70;99.90
16392;DHT22;8305;-33.882;151.134;2022-08-01T13:43:02;10.60;99.90
16392;DHT22;8305;-33.882;151.134;2022-08-01T13:45:32;10.50;99.90
16392;DHT22;8305;-33.882;151.134;2022-08-01T13:48:06;10.50;99.90
16392;DHT22;8305;-33.882;151.134;2022-08-01T13:50:36;10.40;99.90
16392;DHT22;8305;-33.882;151.134;2022-08-01T13:53:07;10.40;99.90
16392;DHT22;8305;-33.882;151.134;2022-08-01T13:55:38;10.40;99.90
16392;DHT22;8305;-33.882;151.134;2022-08-01T13:58:09;10.30;99.90
16392;DHT22;8305;-33.882;151.134;2022-08-01T14:00:39;10.30;99.90
16392;DHT22;8305;-33.882;151.134;2022-08-01T14:03:12;10.30;99.90
16392;DHT22;8305;-33.882;151.134;2022-08-01T14:05:44;10.20;99.90
16392;DHT22;8305;-33.882;151.134;2022-08-01T14:08:15;10.10;99.90
16392;DHT22;8305;-33.882;151.134;2022-08-01T14:10:45;10.10;99.90
16392;DHT22;8305;-33.882;151.134;2022-08-01T14:13:16;10.00;99.90
16392;DHT22;8305;-33.882;151.134;2022-08-01T14:15:47;10.00;99.90
16392;DHT22;8305;-33.882;151.134;2022-08-01T14:18:19;10.00;99.90
16392;DHT22;8305;-33.882;151.134;2022-08-01T14:20:50;9.80;99.90
16392;DHT22;8305;-33.882;151.134;2022-08-01T14:23:21;9.80;99.90
16392;DHT22;8305;-33.882;151.134;2022-08-01T14:25:52;9.80;99.90
16392;DHT22;8305;-33.882;151.134;2022-08-01T14:28:22;9.90;99.90
16392;DHT22;8305;-33.882;151.134;2022-08-01T14:30:55;9.80;99.90
16392;DHT22;8305;-33.882;151.134;2022-08-01T14:33:28;9.80;99.90
16392;DHT22;8305;-33.882;151.134;2022-08-01T14:35:58;9.80;99.90
16392;DHT22;8305;-33.882;151.134;2022-08-01T14:38:29;9.80;99.90
16392;DHT22;8305;-33.882;151.134;2022-08-01T14:41:00;9.80;99.90
16392;DHT22;8305;-33.882;151.134;2022-08-01T14:43:31;9.80;99.90
16392;DHT22;8305;-33.882;151.134;2022-08-01T14:46:02;9.80;99.90
16392;DHT22;8305;-33.882;151.134;2022-08-01T14:48:34;9.70;99.90
16392;DHT22;8305;-33.882;151.134;2022-08-01T14:51:05;9.70;99.90
16392;DHT22;8305;-33.882;151.134;2022-08-01T14:53:36;9.70;99.90
16392;DHT22;8305;-33.882;151.134;2022-08-01T14:56:07;9.70;99.90
16392;DHT22;8305;-33.882;151.134;2022-08-01T14:58:38;9.80;99.90
16392;DHT22;8305;-33.882;151.134;2022-08-01T15:01:09;9.80;99.90
16392;DHT22;8305;-33.882;151.134;2022-08-01T15:03:41;9.80;99.90
16392;DHT22;8305;-33.882;151.134;2022-08-01T15:06:13;9.90;99.90
16392;DHT22;8305;-33.882;151.134;2022-08-01T15:08:44;9.90;99.90
16392;DHT22;8305;-33.882;151.134;2022-08-01T15:11:14;10.00;99.90
16392;DHT22;8305;-33.882;151.134;2022-08-01T15:13:45;10.00;99.90
16392;DHT22;8305;-33.882;151.134;2022-08-01T15:16:36;10.10;99.90
16392;DHT22;8305;-33.882;151.134;2022-08-01T15:19:09;10.10;99.90
16392;DHT22;8305;-33.882;151.134;2022-08-01T15:21:39;10.10;99.90
16392;DHT22;8305;-33.882;151.134;2022-08-01T15:24:10;10.10;99.90
16392;DHT22;8305;-33.882;151.134;2022-08-01T15:26:41;10.10;99.90
16392;DHT22;8305;-33.882;151.134;2022-08-01T15:29:11;10.10;99.90
16392;DHT22;8305;-33.882;151.134;2022-08-01T15:31:43;10.00;99.90
16392;DHT22;8305;-33.882;151.134;2022-08-01T15:34:15;9.80;99.90
16392;DHT22;8305;-33.882;151.134;2022-08-01T15:36:46;9.70;99.90
16392;DHT22;8305;-33.882;151.134;2022-08-01T15:39:17;9.70;99.90
16392;DHT22;8305;-33.882;151.134;2022-08-01T15:41:47;9.60;99.90
16392;DHT22;8305;-33.882;151.134;2022-08-01T15:44:18;9.60;99.90